Oshkosh, WI

8:08 PM CDT on May 05, 2015 (GMT -0500)
Baldwin Basin | | Change Station
CLOSE
Current Station
Personal Weather Station
Location: Oshkosh, WI
Elevation: 761 ft
Nearby Weather Stations

Elev 761 ft 44.03 °N, 88.53 °W | Updated 10 seconds ago

Overcast
Overcast
57.7 °F
Feels Like 57.7 °F
N
3.8
Wind Variable Wind from SE
Gusts 3.8 mph

Today
High -- | Low -- °F
--% Chance of Precip.
Yesterday
High -- | Low -- °F
Precip. -- in
5:40 AM 8:01 PM
Waning Gibbous, 96% visible
Pressure 30.24 in
Visibility 10.0 miles
Clouds Overcast 9500 ft
Dew Point 41 °F
Humidity 54%
Rainfall 0.00 in
Snow Depth Not available.
UV 0 out of 12
Pollen 10.70 out of 12
Air Quality Not available.
Flu Activity Local Activity
METAR KOSH 060053Z 16004KT 10SM OVC095 13/08 A3023 RMK AO2 RAB32E43 SLP238 P0000 T01330083

More Conditions Fewer Conditions

Pressure 30.24 in
Visibility 10.0 miles
Clouds Overcast 9500 ft
Dew Point 41 °F
Humidity 54%
Rainfall 0.00 in
Snow Depth Not available.
UV 0 out of 12
Pollen 10.70 out of 12
Air Quality Not available.
Flu Activity Local Activity
METAR KOSH 060053Z 16004KT 10SM OVC095 13/08 A3023 RMK AO2 RAB32E43 SLP238 P0000 T01330083

More Conditions Fewer Conditions

10-Day Weather Forecast

Almanac

Astronomy

May. 05, 2015 Rise Set
Actual Time
Civil Twilight
Nautical Twilight
Astronomical Twilight
Moon
Length of Visible Light
Length of Day
Tomorrow will be .
, % of the Moon is Illuminated

Today's Extremes

State Highs State Lows

Community

WunderPhotos

Upload Photos

1,819,026 photos uploaded!

WunderBlogs® & News

Nearby

Air Quality

  Air Quality AQ Index Pollutant
Not available.

Snow Depth

Station Depth Elevation

Earthquake Activity

City Distance Mag. Time & Date
Minimum magnitude displayed is 2.5.

Coastal Water Temperatures

Place Temperature

Stations

Nearby Weather Stations

Station Location Temp. Windchill Dew Point Humidity Wind Precip. Elev Updated Type